createdAt,value
2022-10-06T00:00:53.555Z,15.34
2022-10-06T00:01:55.589Z,15.34
2022-10-06T00:02:58.714Z,15.34
2022-10-06T00:04:00.857Z,15.35
2022-10-06T00:05:04.347Z,15.30
2022-10-06T00:06:07.353Z,15.28
2022-10-06T00:07:10.401Z,15.34
2022-10-06T00:08:12.492Z,15.34
2022-10-06T00:09:15.562Z,15.32
2022-10-06T00:10:18.366Z,15.33
2022-10-06T00:11:22.846Z,15.32
2022-10-06T00:12:24.877Z,15.33
2022-10-06T00:13:29.026Z,15.33
2022-10-06T00:14:31.068Z,15.33
2022-10-06T00:15:34.690Z,15.32
2022-10-06T00:16:36.822Z,15.29
2022-10-06T00:17:39.897Z,15.32
2022-10-06T00:18:42.074Z,15.30
2022-10-06T00:19:45.110Z,15.30
2022-10-06T00:20:54.410Z,15.29
2022-10-06T00:21:57.468Z,15.28
2022-10-06T00:22:59.584Z,15.27
2022-10-06T00:24:02.683Z,15.26
2022-10-06T00:25:05.730Z,15.24
2022-10-06T00:26:12.278Z,15.24
2022-10-06T00:27:15.851Z,15.22
2022-10-06T00:28:19.130Z,15.22
2022-10-06T00:29:21.234Z,15.21
2022-10-06T00:30:26.175Z,15.21
2022-10-06T00:31:28.324Z,15.19
2022-10-06T00:32:31.449Z,15.19
2022-10-06T00:33:33.506Z,15.18
2022-10-06T00:34:36.680Z,15.17
2022-10-06T00:35:38.772Z,15.16
2022-10-06T00:36:41.829Z,15.15
2022-10-06T00:37:43.908Z,15.15
2022-10-06T00:38:47.182Z,15.14
2022-10-06T00:39:49.274Z,15.14
2022-10-06T00:40:53.416Z,15.13
2022-10-06T00:41:55.464Z,15.10
2022-10-06T00:43:02.904Z,15.05
2022-10-06T00:44:04.980Z,15.11
2022-10-06T00:45:09.661Z,15.10
2022-10-06T00:46:16.929Z,15.09
2022-10-06T00:47:23.821Z,15.08
2022-10-06T00:48:27.578Z,15.07
2022-10-06T00:49:36.738Z,15.07
2022-10-06T00:50:39.723Z,15.05
2022-10-06T00:51:46.182Z,15.03
2022-10-06T00:52:48.381Z,15.03
2022-10-06T00:53:51.804Z,15.02
2022-10-06T00:54:55.071Z,15.00
2022-10-06T00:55:57.436Z,15.00
2022-10-06T00:57:00.584Z,14.97
2022-10-06T00:58:06.541Z,14.98
2022-10-06T00:59:15.186Z,14.97
2022-10-06T01:00:17.487Z,14.96
2022-10-06T01:01:20.901Z,14.95
2022-10-06T01:02:26.580Z,14.93
2022-10-06T01:03:32.928Z,14.89
2022-10-06T01:04:40.649Z,14.87
2022-10-06T01:05:48.617Z,14.84
2022-10-06T01:06:54.165Z,14.81
2022-10-06T01:07:57.619Z,14.79
2022-10-06T01:09:00.741Z,14.77
2022-10-06T01:10:03.252Z,14.75
2022-10-06T01:11:06.637Z,14.73
2022-10-06T01:12:09.580Z,14.71
2022-10-06T01:13:15.346Z,14.69
2022-10-06T01:14:19.810Z,14.66
2022-10-06T01:15:23.543Z,14.64
2022-10-06T01:16:27.095Z,14.62
2022-10-06T01:17:36.822Z,14.54
2022-10-06T01:18:40.592Z,14.56
2022-10-06T01:19:51.163Z,14.50
2022-10-06T01:20:59.875Z,14.50
2022-10-06T01:22:05.927Z,14.48
2022-10-06T01:23:12.227Z,14.45
2022-10-06T01:24:17.499Z,14.43
2022-10-06T01:25:20.953Z,14.39
2022-10-06T01:26:26.081Z,14.38
2022-10-06T01:27:30.865Z,14.37
2022-10-06T01:28:34.334Z,14.36
2022-10-06T01:29:37.227Z,14.33
2022-10-06T01:30:46.060Z,14.33
2022-10-06T01:31:50.229Z,14.30
2022-10-06T01:32:52.527Z,14.28
2022-10-06T01:33:57.919Z,14.26
2022-10-06T01:35:00.053Z,14.24
2022-10-06T01:36:04.671Z,14.24
2022-10-06T01:37:06.826Z,14.21
2022-10-06T01:38:10.152Z,14.20
2022-10-06T01:39:13.582Z,14.19
2022-10-06T01:40:16.975Z,14.17
2022-10-06T01:41:21.750Z,14.15
2022-10-06T01:42:25.617Z,14.14
2022-10-06T01:43:27.739Z,14.14
2022-10-06T01:44:30.835Z,14.12
2022-10-06T01:45:32.888Z,14.10
2022-10-06T01:46:36.043Z,14.10
2022-10-06T01:47:38.170Z,14.08
2022-10-06T01:48:41.218Z,14.06
2022-10-06T01:49:44.176Z,14.06
2022-10-06T01:50:47.605Z,14.04
2022-10-06T01:51:50.345Z,14.03
2022-10-06T01:52:55.955Z,14.02
2022-10-06T01:53:58.043Z,14.00
2022-10-06T01:55:02.652Z,13.99
2022-10-06T01:56:06.045Z,13.99
2022-10-06T01:57:09.516Z,13.96
2022-10-06T01:58:12.864Z,13.95
2022-10-06T01:59:16.577Z,13.94
2022-10-06T02:00:20.129Z,13.90
2022-10-06T02:01:24.198Z,13.92
2022-10-06T02:02:30.645Z,13.91
2022-10-06T02:03:36.140Z,13.90
2022-10-06T02:04:38.227Z,13.88
2022-10-06T02:05:41.254Z,13.88
2022-10-06T02:06:43.509Z,13.85
2022-10-06T02:07:46.667Z,13.85
2022-10-06T02:08:50.754Z,13.83
2022-10-06T02:09:54.409Z,13.83
2022-10-06T02:10:58.000Z,13.82
2022-10-06T02:12:02.754Z,13.82
2022-10-06T02:13:05.217Z,13.82
2022-10-06T02:14:09.814Z,13.80
2022-10-06T02:15:11.875Z,13.80
2022-10-06T02:16:15.215Z,13.79
2022-10-06T02:17:18.423Z,13.79
2022-10-06T02:18:21.468Z,13.78
2022-10-06T02:19:24.210Z,13.75
2022-10-06T02:20:27.265Z,13.76
2022-10-06T02:21:29.320Z,13.76
2022-10-06T02:22:32.413Z,13.76
2022-10-06T02:23:34.570Z,13.78
2022-10-06T02:24:38.421Z,13.78
2022-10-06T02:25:40.471Z,13.76
2022-10-06T02:26:44.869Z,13.80
2022-10-06T02:27:47.584Z,13.82
2022-10-06T02:28:50.993Z,13.83
2022-10-06T02:29:56.851Z,13.86
2022-10-06T02:31:02.696Z,13.84
2022-10-06T02:32:05.190Z,13.90
2022-10-06T02:33:08.258Z,13.91
2022-10-06T02:34:10.374Z,13.92
2022-10-06T02:35:14.230Z,13.94
2022-10-06T02:36:18.046Z,13.96
2022-10-06T02:37:21.773Z,13.96
2022-10-06T02:38:24.218Z,13.92
2022-10-06T02:39:27.307Z,13.96
2022-10-06T02:40:29.391Z,13.93
2022-10-06T02:41:32.739Z,13.95
2022-10-06T02:42:37.559Z,13.94
2022-10-06T02:43:41.616Z,13.93
2022-10-06T02:44:43.707Z,13.93
2022-10-06T02:45:56.001Z,13.92
2022-10-06T02:47:00.545Z,13.82
2022-10-06T02:48:02.618Z,13.92
2022-10-06T02:49:06.426Z,13.92
2022-10-06T02:50:10.003Z,13.91
2022-10-06T02:51:15.655Z,13.90
2022-10-06T02:52:18.751Z,13.89
2022-10-06T02:53:21.804Z,13.87
2022-10-06T02:54:24.497Z,13.85
2022-10-06T02:55:27.705Z,13.83
2022-10-06T02:56:29.778Z,13.81
2022-10-06T02:57:33.315Z,13.80
2022-10-06T02:58:39.536Z,13.78
2022-10-06T02:59:45.560Z,13.76
2022-10-06T03:00:47.616Z,13.75
2022-10-06T03:01:50.842Z,13.72
2022-10-06T03:02:54.093Z,13.71
2022-10-06T03:03:57.404Z,13.69
2022-10-06T03:04:59.582Z,13.66
2022-10-06T03:06:03.697Z,13.64
2022-10-06T03:07:07.008Z,13.63
2022-10-06T03:08:13.311Z,13.61
2022-10-06T03:09:15.479Z,13.59
2022-10-06T03:10:19.832Z,13.58
2022-10-06T03:11:24.148Z,13.57
2022-10-06T03:12:27.388Z,13.56
2022-10-06T03:13:30.675Z,13.55
2022-10-06T03:14:35.181Z,13.54
2022-10-06T03:15:38.091Z,13.55
2022-10-06T03:16:43.362Z,13.51
2022-10-06T03:17:52.536Z,13.53
2022-10-06T03:18:56.400Z,13.50
2022-10-06T03:19:59.454Z,13.53
2022-10-06T03:21:02.215Z,13.53
2022-10-06T03:22:06.213Z,13.49
2022-10-06T03:23:17.511Z,13.51
2022-10-06T03:24:20.626Z,13.53
2022-10-06T03:25:26.900Z,13.50
2022-10-06T03:26:32.848Z,13.49
2022-10-06T03:27:35.109Z,13.49
2022-10-06T03:28:40.620Z,13.48
2022-10-06T03:29:44.989Z,13.48
2022-10-06T03:30:48.382Z,13.46
2022-10-06T03:31:51.869Z,13.46
2022-10-06T03:32:54.936Z,13.42
2022-10-06T03:33:57.820Z,13.44
2022-10-06T03:35:03.453Z,13.43
2022-10-06T03:36:08.737Z,13.40
2022-10-06T03:37:10.867Z,13.40
2022-10-06T03:38:14.618Z,13.38
2022-10-06T03:39:16.739Z,13.37
2022-10-06T03:40:19.832Z,13.36
2022-10-06T03:41:24.842Z,13.33
2022-10-06T03:42:28.189Z,13.33
2022-10-06T03:43:30.484Z,13.18
2022-10-06T03:44:35.069Z,13.29
2022-10-06T03:45:39.158Z,13.27
2022-10-06T03:46:42.604Z,13.26
2022-10-06T03:47:45.981Z,13.24
2022-10-06T03:48:50.896Z,13.23
2022-10-06T03:49:53.121Z,13.24
2022-10-06T03:50:57.242Z,13.22
2022-10-06T03:51:59.264Z,13.21
2022-10-06T03:53:07.732Z,13.21
2022-10-06T03:54:11.012Z,13.19
2022-10-06T03:55:15.529Z,13.18
2022-10-06T03:56:20.523Z,13.16
2022-10-06T03:57:23.623Z,13.15
2022-10-06T03:58:26.243Z,13.14
2022-10-06T03:59:34.146Z,13.12
2022-10-06T04:00:39.007Z,13.12
2022-10-06T04:01:44.076Z,13.11
2022-10-06T04:02:49.846Z,13.10
2022-10-06T04:03:54.119Z,13.08
2022-10-06T04:04:56.437Z,13.10
2022-10-06T04:06:02.351Z,13.08
2022-10-06T04:07:04.449Z,13.07
2022-10-06T04:08:07.788Z,13.07
2022-10-06T04:09:15.208Z,13.04
2022-10-06T04:10:19.190Z,13.04
2022-10-06T04:11:23.877Z,13.03
2022-10-06T04:12:27.386Z,13.02
2022-10-06T04:13:29.648Z,13.02
2022-10-06T04:14:32.784Z,13.01
2022-10-06T04:15:35.441Z,12.99
2022-10-06T04:16:41.992Z,13.00
2022-10-06T04:17:44.419Z,12.99
2022-10-06T04:18:51.780Z,12.98
2022-10-06T04:19:53.813Z,12.96
2022-10-06T04:21:00.657Z,12.96
2022-10-06T04:22:02.871Z,12.96
2022-10-06T04:23:07.295Z,12.95
2022-10-06T04:24:11.786Z,12.94
2022-10-06T04:25:17.649Z,12.92
2022-10-06T04:26:22.869Z,12.93
2022-10-06T04:27:29.491Z,12.92
2022-10-06T04:28:40.723Z,12.91
2022-10-06T04:29:42.953Z,12.90
2022-10-06T04:30:56.551Z,12.89
2022-10-06T04:32:01.011Z,12.87
2022-10-06T04:33:10.279Z,12.86
2022-10-06T04:34:13.452Z,12.86
2022-10-06T04:35:17.873Z,12.85
2022-10-06T04:36:22.919Z,12.85
2022-10-06T04:37:28.418Z,12.83
2022-10-06T04:38:33.604Z,12.83
2022-10-06T04:39:37.812Z,12.81
2022-10-06T04:40:40.227Z,12.80
2022-10-06T04:41:47.442Z,12.81
2022-10-06T04:43:03.879Z,12.78
2022-10-06T04:44:07.431Z,12.78
2022-10-06T04:45:11.252Z,12.77
2022-10-06T04:46:40.968Z,12.76
2022-10-06T04:47:41.020Z,12.75
2022-10-06T04:48:43.957Z,12.73
2022-10-06T04:49:47.032Z,12.72
2022-10-06T04:50:54.220Z,12.71
2022-10-06T04:51:57.631Z,12.71
2022-10-06T04:53:00.710Z,12.70
2022-10-06T04:54:03.764Z,12.71
2022-10-06T04:55:11.113Z,12.69
2022-10-06T04:56:16.811Z,12.69
2022-10-06T04:57:18.883Z,12.68
2022-10-06T04:58:22.012Z,12.68
2022-10-06T04:59:44.991Z,12.66
2022-10-06T05:00:50.087Z,12.64
2022-10-06T05:01:52.328Z,12.64
2022-10-06T05:02:56.895Z,12.62
2022-10-06T05:04:00.976Z,12.62
2022-10-06T05:05:07.813Z,12.61
2022-10-06T05:06:12.853Z,12.61
2022-10-06T05:07:16.084Z,12.60
2022-10-06T05:08:18.165Z,12.59
2022-10-06T05:09:21.304Z,12.58
2022-10-06T05:10:28.002Z,12.57
2022-10-06T05:11:31.858Z,12.55
2022-10-06T05:12:34.481Z,12.56
2022-10-06T05:13:38.444Z,12.54
2022-10-06T05:14:41.108Z,12.54
2022-10-06T05:15:44.520Z,12.54
2022-10-06T05:16:47.006Z,12.53
2022-10-06T05:17:50.711Z,12.52
2022-10-06T05:18:54.249Z,12.52
2022-10-06T05:19:57.372Z,12.50
2022-10-06T05:21:06.363Z,12.50
2022-10-06T05:22:09.868Z,12.50
2022-10-06T05:23:12.004Z,12.48
2022-10-06T05:24:15.021Z,12.47
2022-10-06T05:25:17.079Z,12.46
2022-10-06T05:26:22.059Z,12.44
2022-10-06T05:27:24.382Z,12.43
2022-10-06T05:28:29.895Z,12.44
2022-10-06T05:29:34.609Z,12.43
2022-10-06T05:30:38.950Z,12.41
2022-10-06T05:31:43.445Z,12.41
2022-10-06T05:32:50.467Z,12.41
2022-10-06T05:33:55.798Z,12.40
2022-10-06T05:34:57.874Z,12.40
2022-10-06T05:36:02.464Z,12.40
2022-10-06T05:37:04.606Z,12.39
2022-10-06T05:38:11.703Z,12.40
2022-10-06T05:39:13.803Z,12.40
2022-10-06T05:40:23.814Z,12.38
2022-10-06T05:41:28.788Z,12.38
2022-10-06T05:42:33.004Z,12.39
2022-10-06T05:43:35.653Z,12.38
2022-10-06T05:44:38.763Z,12.37
2022-10-06T05:45:54.323Z,12.35
2022-10-06T05:46:57.474Z,12.37
2022-10-06T05:47:59.541Z,12.38
2022-10-06T05:49:07.112Z,12.38
2022-10-06T05:50:09.867Z,12.37
2022-10-06T05:51:12.885Z,12.38
2022-10-06T05:52:15.171Z,12.38
2022-10-06T05:53:18.243Z,12.38
2022-10-06T05:54:20.391Z,12.39
2022-10-06T05:55:23.442Z,12.40
2022-10-06T05:56:27.272Z,12.39
2022-10-06T05:57:30.459Z,12.39
2022-10-06T05:58:32.900Z,12.39
2022-10-06T05:59:36.218Z,12.39
2022-10-06T06:00:39.770Z,12.39
2022-10-06T06:01:44.287Z,12.40
2022-10-06T06:02:53.733Z,12.39
2022-10-06T06:03:59.539Z,12.39
2022-10-06T06:05:05.150Z,12.39
2022-10-06T06:06:17.147Z,12.39
2022-10-06T06:07:22.168Z,12.40
2022-10-06T06:08:24.285Z,12.40
2022-10-06T06:09:28.864Z,12.40
2022-10-06T06:10:33.924Z,12.40
2022-10-06T06:11:38.841Z,12.41
2022-10-06T06:12:41.159Z,12.41
2022-10-06T06:14:06.328Z,12.42
2022-10-06T06:15:27.940Z,12.43
2022-10-06T06:16:36.948Z,12.41
2022-10-06T06:17:40.117Z,12.41
2022-10-06T06:18:43.601Z,12.41
2022-10-06T06:19:48.090Z,12.42
2022-10-06T06:20:58.316Z,12.42
2022-10-06T06:22:00.409Z,12.42
2022-10-06T06:23:03.476Z,12.42
2022-10-06T06:24:06.485Z,12.43
2022-10-06T06:25:12.961Z,12.44
2022-10-06T06:26:19.006Z,12.44
2022-10-06T06:27:24.720Z,12.46
2022-10-06T06:28:30.155Z,12.45
2022-10-06T06:29:32.639Z,12.46
2022-10-06T06:30:35.793Z,12.46
2022-10-06T06:31:43.737Z,12.47
2022-10-06T06:32:46.189Z,12.47
2022-10-06T06:33:51.762Z,12.49
2022-10-06T06:34:53.866Z,12.50
2022-10-06T06:36:03.289Z,12.50
2022-10-06T06:37:09.481Z,12.51
2022-10-06T06:38:15.165Z,12.51
2022-10-06T06:39:19.910Z,12.52
2022-10-06T06:40:23.251Z,12.54
2022-10-06T06:41:29.019Z,12.55
2022-10-06T06:42:38.346Z,12.55
2022-10-06T06:44:01.404Z,12.56
2022-10-06T06:45:26.282Z,12.57
2022-10-06T06:46:36.556Z,12.59
2022-10-06T06:47:42.192Z,12.59
2022-10-06T06:48:47.148Z,12.61
2022-10-06T06:49:49.230Z,12.61
2022-10-06T06:51:02.549Z,12.62
2022-10-06T06:52:08.176Z,12.64
2022-10-06T06:53:16.296Z,12.66
2022-10-06T06:54:20.555Z,12.67
2022-10-06T06:55:26.841Z,12.69
2022-10-06T06:56:35.090Z,12.70
2022-10-06T06:57:39.122Z,12.72
2022-10-06T06:58:47.555Z,12.73
2022-10-06T06:59:49.558Z,12.75
2022-10-06T07:00:54.113Z,12.75
2022-10-06T07:01:57.705Z,12.77
2022-10-06T07:03:02.424Z,12.78
2022-10-06T07:04:06.964Z,12.80
2022-10-06T07:05:12.565Z,12.81
2022-10-06T07:06:16.309Z,12.82
2022-10-06T07:07:20.975Z,12.83
2022-10-06T07:08:23.183Z,12.84
2022-10-06T07:09:27.210Z,12.86
2022-10-06T07:10:37.125Z,12.87
2022-10-06T07:11:41.204Z,12.89
2022-10-06T07:12:47.063Z,12.88
2022-10-06T07:13:54.073Z,12.91
2022-10-06T07:15:14.744Z,12.89
2022-10-06T07:16:39.935Z,12.92
2022-10-06T07:18:00.634Z,12.94
2022-10-06T07:19:25.106Z,12.96
2022-10-06T07:20:46.578Z,12.97
2022-10-06T07:22:11.252Z,12.99
2022-10-06T07:23:35.556Z,12.99
2022-10-06T07:24:57.920Z,13.00
2022-10-06T07:26:00.946Z,13.03
2022-10-06T07:27:03.093Z,13.05
2022-10-06T07:28:07.776Z,13.05
2022-10-06T07:29:13.047Z,13.06
2022-10-06T07:30:19.455Z,13.09
2022-10-06T07:31:24.707Z,13.10
2022-10-06T07:32:30.930Z,13.12
2022-10-06T07:33:33.377Z,13.13
2022-10-06T07:34:44.137Z,13.15
2022-10-06T07:35:47.418Z,13.15
2022-10-06T07:36:54.869Z,13.18
2022-10-06T07:38:05.989Z,13.18
2022-10-06T07:39:10.555Z,13.20
2022-10-06T07:40:14.897Z,13.21
2022-10-06T07:41:19.795Z,13.23
2022-10-06T07:42:30.240Z,13.24
2022-10-06T07:43:33.254Z,13.27
2022-10-06T07:44:36.923Z,13.28
2022-10-06T07:45:39.669Z,13.31
2022-10-06T07:47:06.554Z,13.33
2022-10-06T07:48:27.708Z,13.35
2022-10-06T07:49:33.348Z,13.36
2022-10-06T07:50:39.082Z,13.38
2022-10-06T07:51:42.985Z,13.40
2022-10-06T07:52:50.265Z,13.44
2022-10-06T07:53:53.709Z,13.45
2022-10-06T07:55:07.042Z,13.45
2022-10-06T07:56:37.020Z,13.49
2022-10-06T07:57:39.067Z,13.52
2022-10-06T07:58:44.128Z,13.52
2022-10-06T07:59:47.145Z,13.53
2022-10-06T08:00:49.156Z,13.55
2022-10-06T08:01:52.982Z,13.56
2022-10-06T08:02:55.154Z,13.59
2022-10-06T08:03:58.594Z,13.60
2022-10-06T08:05:00.631Z,13.62
2022-10-06T08:06:03.848Z,13.64
2022-10-06T08:07:10.248Z,13.66
2022-10-06T08:08:15.294Z,13.67
2022-10-06T08:09:18.276Z,13.69
2022-10-06T08:10:20.882Z,13.70
2022-10-06T08:11:23.906Z,13.72
2022-10-06T08:12:37.814Z,13.73
2022-10-06T08:13:43.602Z,13.74
2022-10-06T08:14:47.223Z,13.76
2022-10-06T08:15:51.262Z,13.76
2022-10-06T08:16:54.380Z,13.78
2022-10-06T08:17:59.423Z,13.80
2022-10-06T08:19:02.556Z,13.80
2022-10-06T08:20:06.006Z,13.82
2022-10-06T08:21:14.723Z,13.82
2022-10-06T08:22:16.826Z,13.86
2022-10-06T08:23:21.366Z,13.87
2022-10-06T08:24:24.416Z,13.88
2022-10-06T08:25:27.536Z,13.92
2022-10-06T08:26:31.180Z,13.93
2022-10-06T08:27:35.612Z,13.95
2022-10-06T08:28:40.572Z,13.99
2022-10-06T08:29:42.677Z,14.01
2022-10-06T08:30:45.702Z,14.03
2022-10-06T08:31:48.783Z,14.05
2022-10-06T08:32:50.901Z,14.08
2022-10-06T08:33:57.064Z,14.09
2022-10-06T08:35:00.136Z,14.12
2022-10-06T08:36:03.978Z,14.14
2022-10-06T08:37:19.804Z,14.16
2022-10-06T08:38:24.820Z,14.19
2022-10-06T08:39:26.821Z,14.20
2022-10-06T08:40:30.477Z,14.21
2022-10-06T08:41:39.892Z,14.22
2022-10-06T08:42:45.724Z,14.25
2022-10-06T08:43:53.675Z,14.26
2022-10-06T08:45:00.696Z,14.31
2022-10-06T08:46:05.457Z,14.31
2022-10-06T08:47:14.576Z,14.35
2022-10-06T08:48:21.391Z,14.37
2022-10-06T08:49:26.949Z,14.41
2022-10-06T08:50:32.997Z,14.43
2022-10-06T08:51:55.944Z,14.47
2022-10-06T08:53:10.850Z,14.49
2022-10-06T08:54:25.210Z,14.52
2022-10-06T08:55:35.459Z,14.55
2022-10-06T08:56:52.017Z,14.57
2022-10-06T08:59:16.240Z,14.60
2022-10-06T09:00:21.491Z,14.63
2022-10-06T09:01:28.029Z,14.64
2022-10-06T09:02:33.175Z,14.66
2022-10-06T09:03:37.955Z,14.67
2022-10-06T09:04:40.048Z,14.71
2022-10-06T09:05:43.104Z,14.73
2022-10-06T09:06:51.989Z,14.74
2022-10-06T09:08:16.729Z,14.77
2022-10-06T09:09:34.177Z,14.78
2022-10-06T09:10:44.388Z,14.81
2022-10-06T09:11:56.392Z,14.81
2022-10-06T09:13:04.860Z,14.82
2022-10-06T09:14:14.820Z,14.83
2022-10-06T09:15:30.152Z,14.85
2022-10-06T09:16:40.543Z,14.87
2022-10-06T09:17:50.212Z,14.89
2022-10-06T09:19:08.660Z,14.91
2022-10-06T09:20:20.394Z,14.95
2022-10-06T09:21:30.286Z,14.97
2022-10-06T09:22:33.605Z,14.99
2022-10-06T09:23:49.209Z,15.00
2022-10-06T09:24:58.419Z,15.01
2022-10-06T09:26:02.682Z,15.03
2022-10-06T09:27:18.611Z,15.06
2022-10-06T09:28:22.257Z,15.07
2022-10-06T09:29:31.928Z,15.09
2022-10-06T09:30:33.957Z,15.12
2022-10-06T09:31:39.234Z,15.13
2022-10-06T09:32:48.281Z,15.15
2022-10-06T09:33:55.312Z,15.17
2022-10-06T09:34:59.845Z,15.17
2022-10-06T09:36:06.430Z,15.18
2022-10-06T09:37:11.167Z,15.20
2022-10-06T09:38:14.223Z,15.23
2022-10-06T09:39:24.735Z,15.25
2022-10-06T09:40:37.481Z,15.26
2022-10-06T09:41:45.728Z,15.28
2022-10-06T09:42:47.966Z,15.31
2022-10-06T09:43:57.971Z,15.35
2022-10-06T09:45:03.882Z,15.37
2022-10-06T09:46:20.989Z,15.40
2022-10-06T09:47:39.040Z,15.41
2022-10-06T09:48:42.156Z,15.43
2022-10-06T09:49:44.217Z,15.44
2022-10-06T09:51:07.591Z,15.46
2022-10-06T09:52:15.107Z,15.49
2022-10-06T09:53:17.222Z,15.53
2022-10-06T09:54:24.457Z,15.56
2022-10-06T09:55:30.068Z,15.60
2022-10-06T09:56:36.270Z,15.62
2022-10-06T09:57:39.191Z,15.66
2022-10-06T09:58:56.375Z,15.70
2022-10-06T10:00:00.080Z,15.71
2022-10-06T10:01:05.662Z,15.74
2022-10-06T10:02:28.098Z,15.76
2022-10-06T10:04:02.077Z,15.77
2022-10-06T10:05:21.001Z,15.77
2022-10-06T10:06:27.617Z,15.75
2022-10-06T10:07:33.234Z,15.75
2022-10-06T10:09:38.365Z,15.73
2022-10-06T10:10:42.835Z,15.73
2022-10-06T10:12:04.011Z,15.74
2022-10-06T10:13:21.604Z,15.77
2022-10-06T10:14:23.757Z,15.80
2022-10-06T10:15:31.155Z,15.84
2022-10-06T10:16:35.679Z,15.91
2022-10-06T10:17:47.939Z,15.96
2022-10-06T10:18:52.668Z,16.03
2022-10-06T10:19:55.484Z,16.02
2022-10-06T10:21:00.573Z,16.06
2022-10-06T10:22:03.904Z,16.07
2022-10-06T10:23:30.123Z,16.08
2022-10-06T10:24:53.589Z,16.11
2022-10-06T10:26:28.235Z,16.16
2022-10-06T10:27:39.916Z,16.19
2022-10-06T10:29:07.156Z,16.23
2022-10-06T10:30:10.713Z,16.26
2022-10-06T10:31:23.665Z,16.29
2022-10-06T10:32:40.591Z,16.30
2022-10-06T10:34:05.042Z,16.30
2022-10-06T10:35:21.236Z,16.30
2022-10-06T10:36:34.348Z,16.31
2022-10-06T10:37:43.338Z,16.33
2022-10-06T10:38:48.514Z,16.33
2022-10-06T10:39:57.447Z,16.37
2022-10-06T10:41:04.832Z,16.39
2022-10-06T10:42:17.851Z,16.44
2022-10-06T10:43:29.944Z,16.48
2022-10-06T10:44:35.482Z,16.55
2022-10-06T10:45:45.001Z,16.60
2022-10-06T10:46:52.829Z,16.65
2022-10-06T10:47:56.797Z,16.68
2022-10-06T10:49:05.243Z,16.72
2022-10-06T10:50:20.055Z,16.75
2022-10-06T10:51:28.593Z,16.78
2022-10-06T10:52:34.667Z,16.80
2022-10-06T10:53:47.342Z,16.84
2022-10-06T10:55:01.644Z,16.88
2022-10-06T10:56:08.645Z,16.93
2022-10-06T10:57:17.252Z,16.97
2022-10-06T10:58:24.873Z,17.00
2022-10-06T10:59:35.222Z,17.01
2022-10-06T11:00:43.833Z,17.04
2022-10-06T11:01:51.181Z,17.05
2022-10-06T11:02:56.711Z,17.03
2022-10-06T11:04:00.954Z,17.00
2022-10-06T11:05:13.516Z,17.00
2022-10-06T11:06:40.686Z,16.95
2022-10-06T11:07:51.678Z,16.92
2022-10-06T11:09:00.739Z,16.90
2022-10-06T11:10:13.420Z,16.89
2022-10-06T11:11:22.431Z,16.87
2022-10-06T11:12:40.666Z,16.87
2022-10-06T11:13:48.130Z,16.88
2022-10-06T11:14:59.804Z,16.87
2022-10-06T11:16:29.842Z,16.88
2022-10-06T11:17:44.507Z,16.86
2022-10-06T11:18:59.112Z,16.85
2022-10-06T11:20:12.439Z,16.82
2022-10-06T11:21:21.180Z,16.81
2022-10-06T11:22:33.052Z,16.79
2022-10-06T11:23:48.096Z,16.75
2022-10-06T11:25:02.009Z,16.66
2022-10-06T11:26:14.926Z,16.61
2022-10-06T11:27:28.577Z,16.49
2022-10-06T11:28:43.117Z,16.42
2022-10-06T11:29:59.212Z,16.35
2022-10-06T11:31:11.327Z,16.31
2022-10-06T11:32:26.494Z,16.29
2022-10-06T11:33:35.918Z,16.30
2022-10-06T11:34:40.019Z,16.29
2022-10-06T11:35:45.324Z,16.28
2022-10-06T11:36:55.685Z,16.26
2022-10-06T11:38:02.329Z,16.23
2022-10-06T11:39:17.593Z,16.20
2022-10-06T11:40:36.015Z,16.20
2022-10-06T11:41:43.633Z,16.20
2022-10-06T11:42:53.754Z,16.17
2022-10-06T11:44:06.387Z,16.17
2022-10-06T11:45:14.750Z,16.17
2022-10-06T11:46:31.764Z,16.12
2022-10-06T11:47:45.098Z,16.13
2022-10-06T11:48:48.194Z,16.12
2022-10-06T11:49:52.327Z,16.13
2022-10-06T11:50:56.525Z,16.14
2022-10-06T11:52:37.929Z,16.17
2022-10-06T11:53:41.531Z,16.24
2022-10-06T11:54:47.842Z,16.30
2022-10-06T11:56:46.669Z,16.39
2022-10-06T11:59:42.720Z,16.48
2022-10-06T12:00:47.367Z,16.45
2022-10-06T12:01:56.729Z,16.46
2022-10-06T12:03:38.204Z,16.41
2022-10-06T12:04:41.284Z,16.38
2022-10-06T12:05:56.114Z,16.37
2022-10-06T12:07:01.506Z,16.37
2022-10-06T12:08:13.029Z,16.41
2022-10-06T12:09:41.352Z,16.42
2022-10-06T12:10:51.744Z,16.44
2022-10-06T12:11:55.054Z,16.54
2022-10-06T12:13:21.166Z,16.58
2022-10-06T12:17:49.488Z,16.75
2022-10-06T12:19:12.058Z,16.80
2022-10-06T12:20:18.825Z,16.84
2022-10-06T12:21:40.139Z,16.91
2022-10-06T12:22:49.054Z,16.96
2022-10-06T12:24:05.522Z,17.01
2022-10-06T12:25:19.683Z,17.05
2022-10-06T12:26:36.134Z,17.07
2022-10-06T12:27:55.190Z,17.13
2022-10-06T12:29:02.543Z,17.15
2022-10-06T12:30:18.402Z,17.16
2022-10-06T12:31:47.432Z,17.13
2022-10-06T12:32:54.312Z,17.15
2022-10-06T12:33:56.666Z,17.16
2022-10-06T12:35:09.825Z,17.15
2022-10-06T12:36:20.043Z,17.13
2022-10-06T12:37:41.585Z,17.14
2022-10-06T12:39:02.137Z,17.14
2022-10-06T12:40:47.010Z,17.17
2022-10-06T12:42:00.938Z,17.22
2022-10-06T12:43:35.165Z,17.27
2022-10-06T12:44:40.990Z,17.31
2022-10-06T12:45:46.226Z,17.35
2022-10-06T12:46:52.672Z,17.37
2022-10-06T12:47:55.734Z,17.39
2022-10-06T12:49:13.456Z,17.41
2022-10-06T12:50:21.796Z,17.41
2022-10-06T12:51:31.089Z,17.35
2022-10-06T12:52:51.725Z,17.44
2022-10-06T12:54:00.858Z,17.44
2022-10-06T12:55:18.804Z,17.44
2022-10-06T12:56:28.763Z,17.47
2022-10-06T12:57:32.156Z,17.49
2022-10-06T12:58:35.423Z,17.51
2022-10-06T12:59:40.807Z,17.53
2022-10-06T13:00:43.905Z,17.54
2022-10-06T13:01:47.261Z,17.55
2022-10-06T13:02:55.342Z,17.54
2022-10-06T13:03:58.464Z,17.50
2022-10-06T13:05:02.567Z,17.47
2022-10-06T13:06:08.099Z,17.43
2022-10-06T13:07:16.623Z,17.37
2022-10-06T13:08:24.611Z,17.30
2022-10-06T13:09:26.723Z,17.25
2022-10-06T13:10:30.554Z,17.19
2022-10-06T13:11:33.132Z,17.09
2022-10-06T13:12:39.245Z,17.06
2022-10-06T13:13:48.539Z,17.02
2022-10-06T13:15:16.916Z,16.99
2022-10-06T13:16:23.136Z,16.98
2022-10-06T13:17:26.252Z,16.98
2022-10-06T13:18:32.865Z,16.98
2022-10-06T13:19:35.894Z,17.01
2022-10-06T13:20:41.617Z,17.03
2022-10-06T13:21:45.399Z,17.05
2022-10-06T13:22:55.805Z,17.06
2022-10-06T13:23:59.140Z,17.07
2022-10-06T13:25:01.607Z,17.08
2022-10-06T13:26:06.748Z,17.08
2022-10-06T13:27:17.410Z,17.08
2022-10-06T13:28:22.442Z,17.07
2022-10-06T13:29:27.475Z,17.07
2022-10-06T13:30:34.965Z,17.05
2022-10-06T13:31:51.865Z,17.04
2022-10-06T13:32:56.915Z,17.03
2022-10-06T13:34:03.961Z,16.97
2022-10-06T13:35:06.619Z,17.01
2022-10-06T13:36:11.310Z,16.99
2022-10-06T13:37:16.336Z,16.98
2022-10-06T13:38:18.706Z,16.95
2022-10-06T13:39:23.405Z,16.94
2022-10-06T13:40:47.779Z,16.92
2022-10-06T13:41:55.075Z,16.90
2022-10-06T13:42:57.428Z,16.89
2022-10-06T13:44:04.355Z,16.87
2022-10-06T13:45:15.016Z,16.82
2022-10-06T13:46:22.396Z,16.80
2022-10-06T13:47:29.682Z,16.76
2022-10-06T13:48:32.808Z,16.72
2022-10-06T13:49:47.162Z,16.72
2022-10-06T13:50:49.540Z,16.69
2022-10-06T13:51:54.902Z,16.68
2022-10-06T13:52:56.948Z,16.68
2022-10-06T13:54:01.561Z,16.69
2022-10-06T13:55:06.354Z,16.68
2022-10-06T13:57:36.995Z,16.69
2022-10-06T13:58:40.152Z,16.72
2022-10-06T13:59:42.782Z,16.73
2022-10-06T14:00:56.093Z,16.74
2022-10-06T14:02:00.696Z,16.75
2022-10-06T14:03:11.243Z,16.78
2022-10-06T14:04:14.416Z,16.79
2022-10-06T14:05:38.019Z,16.80
2022-10-06T14:06:48.592Z,16.83
2022-10-06T14:07:52.606Z,16.83
2022-10-06T14:08:57.998Z,16.86
2022-10-06T14:10:00.025Z,16.89
2022-10-06T14:11:05.917Z,16.91
2022-10-06T14:12:14.369Z,16.93
2022-10-06T14:13:20.044Z,16.95
2022-10-06T14:14:23.303Z,16.97
2022-10-06T14:15:28.422Z,16.96
2022-10-06T14:16:31.965Z,16.98
2022-10-06T14:17:34.046Z,16.98
2022-10-06T14:18:39.792Z,16.98
2022-10-06T14:19:41.824Z,16.99
2022-10-06T14:20:47.709Z,16.98
2022-10-06T14:21:51.392Z,16.98
2022-10-06T14:22:53.485Z,16.95
2022-10-06T14:23:57.285Z,16.95
2022-10-06T14:24:59.346Z,16.94
2022-10-06T14:26:02.685Z,16.91
2022-10-06T14:27:07.709Z,16.90
2022-10-06T14:28:09.839Z,16.87
2022-10-06T14:29:14.586Z,16.87
2022-10-06T14:30:18.025Z,16.86
2022-10-06T14:31:20.809Z,16.83